Portada
METAR-TAF:

METAR-TAF

Aeroports :

Torí, Itàlia

latitud: 45-13N, longitud: 007-39E, altitud: 301 m

Observació

L'informe es va fer fa 36 minuts, a les 07:20 UTC
Vent 3 kt del Nord-Est, variant entre Nord/Nord-Est i Est
Temperatura 24°C
Humitat 69%
Pressió 1019 hPa
Visibilitat 10 km o més
Núvols disperses a una alçada de 6000 ft

METAR: LIMF 200720Z 05003KT 020V080 9999 SCT060 24/18 Q1019

Hora: 09:56 (07:56 UTC)

Pronòstic

L'informe es va fer fa 2 hores i 56 minuts, a les 05:00 UTC
Pronòstic vàlid del 20 a les 06 UTC al 21 a les 06 UTC
Vent 5 kt amb direcció variable
Visibilitat 10 km o més
Núvols disperses a una alçada de 7000 ft

TAF: LIMF 200500Z 2006/2106 VRB05KT 9999 SCT070

Observacions i pronòstics meteorològics de més de 4000 aeroports (METAR i TAF).

Les estacions disponibles són els punts grocs i vermells al mapa.

Posi el ratolí al punt desitjat per veure el nom de l'estació.

Feu clic per veure les observacions i els pronòstics meteorològics.

Per canviar el mapa: feu clic els botons verds amb una creu de color negre per apropar; al botó verd amb un guió per allunyar la imatge; o en les fletxes verdes per a mapes adjacents.


METAR-TAF: